Widefield, Colorado
Current Conditions -  °F | °C
As of 8:54 AM on Thursday 30 Oct 2014 (Local Time) from KCOS Reporting Station
Clear Clear  
Wind Chill: 45°   Ceiling: Unl
Heat Index: 49°   Visibility: 10mi
Dew Point: 24°   Wind: 8mph
Humidity: 38%   Direction: 320°NW
Pressure: 30.41"   Gusts: NA
Location:  38.7481°N, 104.708°W
Report Text: KCOS 301454Z 32007KT 10SM CLR 09/M04 A3041 RMK AO2 SLP279 T00941044 52015
Loading
Personal Weather Stations






























Interactive Weather Map
Tropical Storm Tracking
New forecast layout! Learn more

10-Day Weather Forecast

Advertisements
Track Severe Weather on mobile